Time;durP1;ratioP1;P1;durP2;ratioP2;P2;SDS_P1;SDS_P2;PMS_P1;PMS_P2;Temp;Humidity;BMP_temperature;BMP_pressure;BME280_temperature;BME280_humidity;BME280_pressure;Samples;Min_cycle;Max_cycle;Signal;HPM_P1;HPM_P2
2021/12/01 00:00:22;;;;;;;3.20;3.00;;;2.60;99.90;;;;;;4981600;28;20468;-71
2021/12/01 00:02:53;;;;;;;3.63;3.33;;;2.60;99.90;;;;;;4991551;28;20592;-75
2021/12/01 00:05:20;;;;;;;3.17;2.23;;;2.60;99.90;;;;;;4993623;28;20435;-72
2021/12/01 00:07:46;;;;;;;10.40;4.03;;;2.60;99.90;;;;;;4993539;28;20507;-75
2021/12/01 00:10:12;;;;;;;4.23;3.00;;;2.70;99.90;;;;;;4988188;28;20512;-71
2021/12/01 00:12:38;;;;;;;3.70;2.83;;;2.70;99.90;;;;;;4973210;28;20929;-75
2021/12/01 00:15:06;;;;;;;5.47;2.73;;;2.80;99.90;;;;;;4974051;28;20928;-74
2021/12/01 00:17:32;;;;;;;3.33;3.03;;;2.80;99.90;;;;;;4973618;28;20173;-75
2021/12/01 00:19:59;;;;;;;4.67;2.70;;;2.80;99.90;;;;;;4976168;28;20440;-70
2021/12/01 00:22:26;;;;;;;2.90;2.70;;;2.80;99.90;;;;;;4992476;28;20403;-72
2021/12/01 00:24:52;;;;;;;10.23;3.27;;;2.80;99.90;;;;;;4993293;28;20408;-75
2021/12/01 00:27:18;;;;;;;7.33;2.63;;;2.80;99.90;;;;;;4993285;28;20462;-71
2021/12/01 00:29:43;;;;;;;2.43;2.23;;;2.90;99.90;;;;;;4993267;28;20404;-72
2021/12/01 00:32:09;;;;;;;6.30;3.33;;;2.90;99.90;;;;;;4973206;28;20188;-75
2021/12/01 00:34:35;;;;;;;3.87;2.37;;;2.90;99.90;;;;;;4973277;28;20177;-74
2021/12/01 00:37:01;;;;;;;3.03;2.83;;;3.00;99.90;;;;;;4973652;28;20213;-73
2021/12/01 00:39:27;;;;;;;4.93;3.30;;;3.00;99.90;;;;;;4973732;28;20808;-72
2021/12/01 00:41:55;;;;;;;2.30;2.10;;;3.00;99.90;;;;;;4989093;28;20421;-74
2021/12/01 00:44:21;;;;;;;6.03;3.60;;;3.00;99.90;;;;;;4991278;28;20850;-74
2021/12/01 00:46:55;;;;;;;6.10;2.20;;;3.10;99.90;;;;;;4992966;28;20452;-71
2021/12/01 00:49:22;;;;;;;6.70;2.30;;;3.00;99.90;;;;;;4983734;28;20464;-72
2021/12/01 00:51:48;;;;;;;10.43;3.47;;;3.00;99.90;;;;;;4972859;28;20508;-74
2021/12/01 00:54:13;;;;;;;7.23;3.50;;;3.10;99.90;;;;;;4972910;28;20938;-71
2021/12/01 00:56:39;;;;;;;5.07;4.60;;;3.10;99.90;;;;;;4972185;28;20456;-75
2021/12/01 00:59:06;;;;;;;5.83;1.97;;;3.10;99.90;;;;;;4978064;28;20188;-72
2021/12/01 01:01:32;;;;;;;4.30;2.50;;;3.10;99.90;;;;;;4992887;28;20885;-72
2021/12/01 01:03:57;;;;;;;2.93;1.93;;;3.10;99.90;;;;;;4991971;28;20943;-71
2021/12/01 01:06:23;;;;;;;2.70;2.50;;;3.20;99.90;;;;;;4992682;28;20464;-73
2021/12/01 01:08:49;;;;;;;13.23;2.97;;;3.30;99.90;;;;;;4974518;28;20842;-75
2021/12/01 01:16:45;;;;;;;3.67;2.30;;;3.30;99.90;;;;;;4973113;28;20429;-71
2021/12/01 01:19:14;;;;;;;4.10;3.03;;;3.30;99.90;;;;;;4985096;28;20933;-75
2021/12/01 01:21:47;;;;;;;9.70;3.20;;;3.30;99.90;;;;;;4992575;28;20499;-72
2021/12/01 01:24:13;;;;;;;1.87;1.70;;;3.30;99.90;;;;;;4991905;28;20413;-71
2021/12/01 01:26:39;;;;;;;4.40;3.33;;;3.40;99.90;;;;;;4992022;28;20966;-75
2021/12/01 01:29:06;;;;;;;10.30;2.50;;;3.40;99.90;;;;;;4974482;28;20551;-71
2021/12/01 01:31:32;;;;;;;8.10;2.07;;;3.40;99.90;;;;;;4972994;28;20402;-75
2021/12/01 01:33:58;;;;;;;3.00;2.80;;;3.50;99.90;;;;;;4972092;28;20459;-71
2021/12/01 01:36:26;;;;;;;13.30;2.83;;;3.50;99.90;;;;;;4972895;28;20503;-74
2021/12/01 01:38:52;;;;;;;4.60;2.90;;;3.50;99.90;;;;;;4987849;28;20447;-71
2021/12/01 01:41:18;;;;;;;8.80;2.30;;;3.50;99.90;;;;;;4992100;28;20870;-74
2021/12/01 01:43:47;;;;;;;5.00;2.90;;;3.60;1.00;;;;;;4990599;28;20423;-74
2021/12/01 01:46:14;;;;;;;4.07;2.70;;;3.60;1.00;;;;;;4992197;28;20672;-72
2021/12/01 01:51:17;;;;;;;6.00;2.70;;;3.60;1.00;;;;;;4972184;28;20424;-75
2021/12/01 01:53:43;;;;;;;12.23;3.00;;;3.60;1.00;;;;;;4971765;28;20740;-72
2021/12/01 01:56:10;;;;;;;2.67;2.30;;;3.70;1.00;;;;;;4972485;28;20495;-73
2021/12/01 01:58:36;;;;;;;2.63;2.53;;;3.70;1.00;;;;;;4984767;28;20442;-71
2021/12/01 02:01:08;;;;;;;2.80;2.60;;;3.70;1.00;;;;;;4991474;28;20416;-76
2021/12/01 02:03:44;;;;;;;2.93;2.70;;;3.80;1.00;;;;;;4989790;28;20774;-74
2021/12/01 02:06:12;;;;;;;4.37;2.83;;;3.80;1.00;;;;;;4991874;28;20439;-73
2021/12/01 02:08:40;;;;;;;4.17;2.20;;;3.80;1.00;;;;;;4979031;28;20930;-73
2021/12/01 02:11:10;;;;;;;2.90;2.57;;;3.80;1.00;;;;;;4972202;28;20424;-73
2021/12/01 02:13:36;;;;;;;2.70;2.37;;;3.90;1.00;;;;;;4971434;28;20414;-75
2021/12/01 02:16:02;;;;;;;2.93;2.73;;;3.80;1.00;;;;;;4971870;28;20529;-74
2021/12/01 02:18:28;;;;;;;3.80;2.60;;;3.90;1.00;;;;;;4982608;28;20566;-75
2021/12/01 02:21:26;;;;;;;3.43;2.93;;;3.90;1.00;;;;;;4991886;28;20483;-75
2021/12/01 02:23:54;;;;;;;7.60;3.50;;;3.90;1.00;;;;;;4990645;28;20449;-75
2021/12/01 02:26:22;;;;;;;5.77;3.10;;;3.90;1.00;;;;;;4991651;28;20919;-75
2021/12/01 02:28:51;;;;;;;5.00;2.40;;;3.90;1.00;;;;;;4977951;28;20468;-76
2021/12/01 02:31:17;;;;;;;7.37;3.13;;;3.80;1.00;;;;;;4972090;28;20424;-76
2021/12/01 02:33:43;;;;;;;7.33;2.70;;;3.90;1.00;;;;;;4971119;28;20417;-76
2021/12/01 02:36:12;;;;;;;6.37;3.00;;;3.80;1.00;;;;;;4971374;28;20483;-74
2021/12/01 02:38:40;;;;;;;3.00;2.20;;;3.80;1.00;;;;;;4983376;28;20424;-76
2021/12/01 02:41:07;;;;;;;3.10;2.50;;;3.80;1.00;;;;;;4991366;28;20412;-74
2021/12/01 02:43:33;;;;;;;4.60;3.37;;;3.80;1.00;;;;;;4990499;28;20503;-75
2021/12/01 02:45:59;;;;;;;3.73;2.27;;;3.90;1.00;;;;;;4991073;28;20460;-75
2021/12/01 02:48:25;;;;;;;16.37;3.10;;;3.90;1.00;;;;;;4987199;28;20521;-74
2021/12/01 02:50:53;;;;;;;15.37;2.63;;;3.90;1.00;;;;;;4991405;28;20177;-73
2021/12/01 02:53:23;;;;;;;7.13;2.57;;;3.90;1.00;;;;;;4989824;28;20252;-73
2021/12/01 02:55:54;;;;;;;3.20;2.70;;;4.00;1.00;;;;;;4982018;28;20483;-74
2021/12/01 02:58:21;;;;;;;3.33;3.10;;;4.00;1.00;;;;;;4971688;28;20771;-73
2021/12/01 03:00:48;;;;;;;3.40;3.17;;;4.00;1.00;;;;;;4971521;28;20957;-73
2021/12/01 03:03:14;;;;;;;3.13;2.83;;;4.00;1.00;;;;;;4969876;28;20401;-72
2021/12/01 03:05:42;;;;;;;6.10;2.97;;;4.00;1.00;;;;;;4985277;28;20460;-73
2021/12/01 03:08:08;;;;;;;4.73;4.33;;;4.10;1.00;;;;;;4990887;28;20452;-72
2021/12/01 03:10:34;;;;;;;3.50;3.20;;;4.00;1.00;;;;;;4990419;28;20457;-72
2021/12/01 03:13:00;;;;;;;6.87;4.03;;;4.10;1.00;;;;;;4990163;28;20798;-71
2021/12/01 03:15:26;;;;;;;8.90;4.30;;;4.10;1.00;;;;;;4978694;28;20210;-73
2021/12/01 03:17:51;;;;;;;6.10;3.73;;;4.10;1.00;;;;;;4971276;28;20209;-72
2021/12/01 03:20:20;;;;;;;7.47;4.73;;;4.10;1.00;;;;;;4970152;28;20270;-72
2021/12/01 03:22:46;;;;;;;4.97;3.73;;;4.10;1.00;;;;;;4970561;28;20236;-72
2021/12/01 03:25:14;;;;;;;4.70;4.20;;;4.10;1.00;;;;;;4972259;28;20457;-72
2021/12/01 03:27:40;;;;;;;12.63;4.30;;;4.20;1.00;;;;;;4970766;28;20217;-71
2021/12/01 03:30:08;;;;;;;11.93;6.60;;;4.10;1.00;;;;;;4971164;28;20535;-74
2021/12/01 03:32:33;;;;;;;5.43;4.10;;;4.10;1.00;;;;;;4969416;28;20477;-72
2021/12/01 03:34:59;;;;;;;4.33;3.13;;;4.10;1.00;;;;;;4978493;28;20520;-72
2021/12/01 03:37:25;;;;;;;7.33;4.33;;;4.10;1.00;;;;;;4990668;28;20312;-72
2021/12/01 03:39:51;;;;;;;7.90;3.83;;;4.20;1.00;;;;;;4990586;28;20879;-73
2021/12/01 03:42:17;;;;;;;4.13;3.77;;;4.20;1.00;;;;;;4989582;28;21183;-73
2021/12/01 03:44:43;;;;;;;3.30;3.10;;;4.20;1.00;;;;;;4984902;28;20764;-72
2021/12/01 03:47:08;;;;;;;6.67;4.50;;;4.20;1.00;;;;;;4970923;28;20528;-72
2021/12/01 03:49:34;;;;;;;3.83;3.50;;;4.20;1.00;;;;;;4971282;28;20220;-72
2021/12/01 03:52:00;;;;;;;8.63;4.10;;;4.30;1.00;;;;;;4970266;28;20184;-76
2021/12/01 03:54:26;;;;;;;3.70;3.40;;;4.20;1.00;;;;;;4972185;28;20634;-73
2021/12/01 03:56:52;;;;;;;4.20;3.53;;;4.30;1.00;;;;;;4988900;28;20569;-71
2021/12/01 03:59:17;;;;;;;4.00;3.70;;;4.30;1.00;;;;;;4990312;28;20400;-71
2021/12/01 04:01:43;;;;;;;7.43;3.77;;;4.30;1.00;;;;;;4989933;28;20576;-72
2021/12/01 04:04:09;;;;;;;3.40;3.20;;;4.30;1.00;;;;;;4989404;28;20580;-70
2021/12/01 04:06:35;;;;;;;7.10;3.90;;;4.40;1.00;;;;;;4970578;28;20206;-70
2021/12/01 04:09:03;;;;;;;3.10;2.90;;;4.40;1.00;;;;;;4970907;28;20204;-70
2021/12/01 04:11:29;;;;;;;4.17;3.07;;;4.40;1.00;;;;;;4970794;28;20447;-71
2021/12/01 04:13:56;;;;;;;7.43;3.37;;;4.40;1.00;;;;;;4971852;28;20405;-70
2021/12/01 04:16:22;;;;;;;4.63;2.80;;;4.40;1.00;;;;;;4989859;28;20202;-73
2021/12/01 04:18:48;;;;;;;3.43;2.73;;;4.40;4.30;;;;;;4993555;28;20416;-71
2021/12/01 04:21:14;;;;;;;2.40;2.30;;;4.40;7.00;;;;;;4992950;28;20875;-70
2021/12/01 04:23:39;;;;;;;2.80;2.53;;;4.40;11.40;;;;;;4992674;28;20260;-70
2021/12/01 04:26:05;;;;;;;2.60;2.40;;;4.40;14.50;;;;;;4978735;28;20201;-72
2021/12/01 04:28:31;;;;;;;3.03;2.70;;;4.40;16.40;;;;;;4973810;28;20285;-71
2021/12/01 04:30:57;;;;;;;2.93;2.63;;;4.40;21.50;;;;;;4973971;28;20176;-71
2021/12/01 04:33:22;;;;;;;2.63;2.00;;;4.50;24.50;;;;;;4972990;28;20249;-71
2021/12/01 04:35:50;;;;;;;2.00;1.90;;;4.50;26.10;;;;;;4983938;28;20193;-72
2021/12/01 04:38:16;;;;;;;1.83;1.73;;;4.50;28.00;;;;;;4992854;28;20260;-71
2021/12/01 04:40:42;;;;;;;2.93;2.07;;;4.50;28.00;;;;;;4993016;28;20409;-72
2021/12/01 04:43:07;;;;;;;2.40;2.20;;;4.50;31.10;;;;;;4992228;28;20451;-71
2021/12/01 04:45:36;;;;;;;3.67;2.17;;;4.60;34.60;;;;;;4984559;28;20710;-71
2021/12/01 04:48:03;;;;;;;2.17;2.07;;;4.60;34.60;;;;;;4973544;28;20193;-71
2021/12/01 04:50:28;;;;;;;2.20;2.00;;;4.60;37.30;;;;;;4973541;28;20476;-72
2021/12/01 04:52:57;;;;;;;2.00;1.90;;;4.60;39.80;;;;;;4972730;28;20488;-71
2021/12/01 04:55:24;;;;;;;2.20;2.07;;;4.60;41.70;;;;;;4977908;28;20185;-72
2021/12/01 04:57:50;;;;;;;4.53;2.50;;;4.60;41.70;;;;;;4992782;28;20409;-72
2021/12/01 05:00:22;;;;;;;2.20;2.10;;;4.60;41.70;;;;;;4992997;28;20412;-71
2021/12/01 05:02:48;;;;;;;2.10;2.00;;;4.60;44.70;;;;;;4992013;28;20423;-71
2021/12/01 05:05:14;;;;;;;1.90;1.80;;;4.60;46.20;;;;;;4988544;28;20499;-71
2021/12/01 05:07:40;;;;;;;2.30;1.93;;;4.70;48.10;;;;;;4973387;28;20956;-70
2021/12/01 05:10:07;;;;;;;1.80;1.70;;;4.70;48.90;;;;;;4973304;28;20515;-72
2021/12/01 05:12:34;;;;;;;1.67;1.57;;;4.70;50.70;;;;;;4971117;28;20770;-71
2021/12/01 05:15:00;;;;;;;1.43;1.33;;;4.70;52.50;;;;;;4973900;28;20421;-72
2021/12/01 05:17:25;;;;;;;1.53;1.43;;;4.80;54.20;;;;;;4992669;28;20762;-72
2021/12/01 05:19:51;;;;;;;1.53;1.43;;;4.80;55.60;;;;;;4992632;28;20401;-71
2021/12/01 05:22:17;;;;;;;2.20;2.00;;;4.80;55.60;;;;;;4991834;28;20537;-71
2021/12/01 05:24:43;;;;;;;1.93;1.83;;;4.80;55.60;;;;;;4991542;28;20198;-72
2021/12/01 05:27:09;;;;;;;2.20;2.00;;;4.80;55.60;;;;;;4973300;28;20485;-72
2021/12/01 05:29:35;;;;;;;2.27;2.17;;;4.80;55.60;;;;;;4973131;28;20215;-71
2021/12/01 05:32:01;;;;;;;1.90;1.80;;;4.80;55.90;;;;;;4970875;28;20426;-76
2021/12/01 05:34:27;;;;;;;1.80;1.70;;;4.90;58.50;;;;;;4972351;28;20436;-73
2021/12/01 05:36:59;;;;;;;1.87;1.70;;;4.90;59.30;;;;;;4988728;28;20224;-72
2021/12/01 05:39:25;;;;;;;2.70;1.60;;;4.90;60.30;;;;;;4992228;28;20448;-73
2021/12/01 05:41:52;;;;;;;1.90;1.80;;;4.90;61.70;;;;;;4992064;28;20434;-75
2021/12/01 05:44:18;;;;;;;1.70;1.60;;;4.90;62.10;;;;;;4991534;28;20780;-71
2021/12/01 05:46:43;;;;;;;1.70;1.60;;;4.90;62.80;;;;;;4977571;28;20540;-71
2021/12/01 05:49:09;;;;;;;2.10;1.90;;;5.00;64.20;;;;;;4972569;28;20242;-70
2021/12/01 05:51:35;;;;;;;2.33;2.13;;;5.00;65.40;;;;;;4971718;28;20444;-71
2021/12/01 05:54:01;;;;;;;1.60;1.50;;;5.00;66.30;;;;;;4970021;28;20188;-70
2021/12/01 05:56:27;;;;;;;1.63;1.53;;;5.00;66.70;;;;;;4983445;28;20538;-70
2021/12/01 05:58:55;;;;;;;1.50;1.40;;;5.10;66.80;;;;;;4992193;28;20503;-70
2021/12/01 06:01:21;;;;;;;1.63;1.53;;;5.10;66.80;;;;;;4990745;28;20951;-69
2021/12/01 06:03:46;;;;;;;2.97;2.77;;;5.10;67.80;;;;;;4991023;28;20440;-72
2021/12/01 06:06:12;;;;;;;1.87;1.77;;;5.20;68.60;;;;;;4981859;28;20200;-69
2021/12/01 06:08:38;;;;;;;1.57;1.47;;;5.20;69.70;;;;;;4981691;28;20742;-71
2021/12/01 06:11:03;;;;;;;1.37;1.27;;;5.20;69.60;;;;;;4972489;28;20179;-73
2021/12/01 06:13:29;;;;;;;2.57;2.37;;;5.20;70.00;;;;;;4979619;28;20515;-70
2021/12/01 06:15:55;;;;;;;1.57;1.47;;;5.20;70.10;;;;;;4972229;28;20182;-72
2021/12/01 06:18:21;;;;;;;1.67;1.57;;;5.20;70.70;;;;;;4976915;28;20425;-72
2021/12/01 06:20:47;;;;;;;1.50;1.40;;;5.30;71.10;;;;;;4972224;28;20167;-71
2021/12/01 06:23:13;;;;;;;1.70;1.60;;;5.30;70.90;;;;;;4971292;28;20438;-70
2021/12/01 06:25:39;;;;;;;1.77;1.67;;;5.30;71.70;;;;;;4972086;28;20270;-70
2021/12/01 06:28:05;;;;;;;1.60;1.30;;;5.30;72.00;;;;;;4977692;28;20453;-70
2021/12/01 06:30:36;;;;;;;1.50;1.40;;;5.40;71.90;;;;;;4990307;28;20420;-73
2021/12/01 06:33:03;;;;;;;1.60;1.50;;;5.40;72.70;;;;;;4990719;28;20290;-73
2021/12/01 06:35:29;;;;;;;1.90;1.80;;;5.40;73.60;;;;;;4991190;28;20432;-71
2021/12/01 06:37:55;;;;;;;1.37;1.27;;;5.50;74.10;;;;;;4986249;28;20435;-70
2021/12/01 06:40:23;;;;;;;2.20;2.00;;;5.50;75.00;;;;;;4971955;28;20793;-73
2021/12/01 06:42:48;;;;;;;1.67;1.57;;;5.50;75.20;;;;;;4969895;28;20475;-70
2021/12/01 06:45:16;;;;;;;1.53;1.43;;;5.50;75.50;;;;;;4971711;28;20452;-72
2021/12/01 06:47:43;;;;;;;1.40;1.30;;;5.50;76.50;;;;;;4972738;28;20193;-72
2021/12/01 06:50:10;;;;;;;1.40;1.30;;;5.60;76.80;;;;;;4976524;28;20455;-72
2021/12/01 06:52:38;;;;;;;1.40;1.30;;;5.60;76.70;;;;;;4970943;28;20398;-72
2021/12/01 06:55:06;;;;;;;1.70;1.60;;;5.60;76.80;;;;;;4971758;28;20403;-73
2021/12/01 06:57:33;;;;;;;1.63;1.53;;;5.60;77.40;;;;;;4973042;28;20397;-71
2021/12/01 06:59:59;;;;;;;1.53;1.43;;;5.70;78.70;;;;;;4991015;28;20409;-72
2021/12/01 07:02:26;;;;;;;1.70;1.60;;;5.70;79.40;;;;;;4990087;28;20819;-73
2021/12/01 07:04:51;;;;;;;2.13;2.03;;;5.80;79.70;;;;;;4990944;28;20453;-71
2021/12/01 07:07:17;;;;;;;1.80;1.70;;;5.80;80.40;;;;;;4990521;28;20400;-71
2021/12/01 07:09:45;;;;;;;1.80;1.70;;;5.80;81.30;;;;;;4971867;28;20208;-71
2021/12/01 07:12:12;;;;;;;1.93;1.83;;;5.90;81.60;;;;;;4970716;28;20223;-70
2021/12/01 07:14:38;;;;;;;2.07;1.97;;;5.90;81.70;;;;;;4971594;28;20828;-71
2021/12/01 07:17:05;;;;;;;2.10;2.00;;;6.00;83.30;;;;;;4971356;28;20420;-73
2021/12/01 07:19:31;;;;;;;2.83;2.50;;;6.00;83.90;;;;;;4988270;28;20434;-71
2021/12/01 07:21:57;;;;;;;2.03;1.93;;;6.00;84.40;;;;;;4990420;28;20408;-71
2021/12/01 07:24:23;;;;;;;2.50;2.40;;;6.00;85.20;;;;;;4988388;28;20206;-73
2021/12/01 07:26:48;;;;;;;2.10;2.00;;;6.10;86.30;;;;;;4990775;28;20212;-71
2021/12/01 07:29:15;;;;;;;2.43;1.90;;;6.10;86.30;;;;;;4975865;28;20667;-71
2021/12/01 07:31:41;;;;;;;2.73;2.60;;;6.20;86.50;;;;;;4971279;28;20408;-70
2021/12/01 07:34:07;;;;;;;2.80;2.70;;;6.20;87.80;;;;;;4970343;28;20405;-71
2021/12/01 07:36:33;;;;;;;2.73;2.53;;;6.30;89.10;;;;;;4971189;28;20696;-72
2021/12/01 07:38:59;;;;;;;3.00;2.80;;;6.40;89.70;;;;;;4983339;28;20234;-71
2021/12/01 07:41:26;;;;;;;2.53;2.40;;;6.40;90.30;;;;;;4989579;28;20560;-72
2021/12/01 07:43:52;;;;;;;2.93;2.77;;;6.50;90.40;;;;;;4989692;28;20400;-73
2021/12/01 07:46:18;;;;;;;3.13;2.83;;;6.60;90.90;;;;;;4990323;28;20979;-71
2021/12/01 07:48:44;;;;;;;3.00;2.70;;;6.70;91.50;;;;;;4981778;28;20205;-72
2021/12/01 07:51:10;;;;;;;3.70;3.40;;;6.90;92.00;;;;;;4974527;28;20937;-72
2021/12/01 07:53:35;;;;;;;2.50;2.30;;;7.00;92.60;;;;;;4973668;28;20397;-71
2021/12/01 07:56:04;;;;;;;4.97;3.43;;;7.00;94.50;;;;;;4974413;28;20243;-71
2021/12/01 07:58:30;;;;;;;5.07;3.07;;;7.20;96.50;;;;;;4980848;28;20202;-71
2021/12/01 08:00:55;;;;;;;2.90;2.70;;;7.20;98.10;;;;;;4991931;28;20416;-71
2021/12/01 08:03:21;;;;;;;3.17;2.87;;;7.30;98.40;;;;;;4992992;28;20173;-71
2021/12/01 08:05:47;;;;;;;3.30;3.00;;;7.40;98.60;;;;;;4993667;28;20189;-72
2021/12/01 08:08:13;;;;;;;3.40;3.20;;;7.50;99.10;;;;;;4987780;28;20280;-71
2021/12/01 08:10:38;;;;;;;4.07;3.77;;;7.50;99.50;;;;;;4974364;28;20178;-71
2021/12/01 08:13:05;;;;;;;3.63;3.10;;;7.60;99.80;;;;;;4973341;28;20166;-70
2021/12/01 08:15:31;;;;;;;2.93;2.73;;;7.80;99.90;;;;;;4974032;28;20273;-70
2021/12/01 08:17:59;;;;;;;3.40;2.70;;;7.90;99.90;;;;;;4976546;28;20553;-72
2021/12/01 08:20:25;;;;;;;4.50;3.30;;;8.00;99.90;;;;;;4993425;28;20769;-71
2021/12/01 08:22:51;;;;;;;3.23;3.03;;;8.10;99.90;;;;;;4992629;28;20505;-72
2021/12/01 08:25:17;;;;;;;3.73;3.43;;;8.20;99.90;;;;;;4993574;28;20875;-71
2021/12/01 08:27:42;;;;;;;3.20;3.00;;;8.30;99.90;;;;;;4992058;28;20197;-72
2021/12/01 08:30:09;;;;;;;3.07;2.30;;;8.40;99.90;;;;;;4972604;28;20174;-72
2021/12/01 08:32:35;;;;;;;2.50;2.30;;;8.50;99.90;;;;;;4973001;28;20408;-72
2021/12/01 08:35:01;;;;;;;2.20;2.10;;;8.50;99.90;;;;;;4973822;28;20483;-73
2021/12/01 08:37:27;;;;;;;2.57;2.23;;;8.60;99.90;;;;;;4973213;28;20433;-70
2021/12/01 08:39:52;;;;;;;2.87;2.67;;;8.60;99.90;;;;;;4991697;28;20599;-72
2021/12/01 08:42:20;;;;;;;3.00;2.80;;;8.60;99.90;;;;;;4992300;28;20400;-70
2021/12/01 08:44:47;;;;;;;2.60;2.20;;;8.60;99.90;;;;;;4992967;28;20238;-74
2021/12/01 08:47:18;;;;;;;2.13;2.00;;;8.60;99.90;;;;;;4993253;28;20440;-74
2021/12/01 08:49:44;;;;;;;6.40;2.60;;;8.60;99.90;;;;;;4976100;28;20508;-72
2021/12/01 08:52:10;;;;;;;2.00;1.87;;;8.70;99.90;;;;;;4974076;28;20456;-71
2021/12/01 08:54:37;;;;;;;2.50;2.10;;;8.70;99.90;;;;;;4992436;28;20424;-74
2021/12/01 08:57:04;;;;;;;2.30;2.10;;;8.70;99.90;;;;;;4992787;28;20463;-71
2021/12/01 08:59:30;;;;;;;1.83;1.73;;;8.70;98.70;;;;;;4975547;28;20981;-71
2021/12/01 09:01:56;;;;;;;3.73;2.37;;;8.70;97.00;;;;;;4987531;28;20507;-70
2021/12/01 09:04:22;;;;;;;2.33;2.23;;;8.70;96.00;;;;;;4992215;28;20493;-71
2021/12/01 09:06:48;;;;;;;2.37;2.27;;;8.70;94.60;;;;;;4991330;28;20432;-73
2021/12/01 09:09:18;;;;;;;2.00;1.90;;;8.70;93.20;;;;;;4992816;28;20201;-72
2021/12/01 09:11:49;;;;;;;2.10;2.00;;;8.70;92.90;;;;;;4983031;28;20716;-72
2021/12/01 09:14:15;;;;;;;2.40;2.20;;;8.70;91.70;;;;;;4972072;28;20406;-73
2021/12/01 09:16:42;;;;;;;2.07;1.90;;;8.70;89.70;;;;;;4973146;28;20921;-74
2021/12/01 09:19:08;;;;;;;3.40;3.20;;;8.70;86.60;;;;;;4973240;28;20413;-71
2021/12/01 09:21:34;;;;;;;1.97;1.87;;;8.80;84.50;;;;;;4980637;28;20750;-73
2021/12/01 09:24:00;;;;;;;2.57;2.37;;;8.80;79.40;;;;;;4991761;28;20415;-73
2021/12/01 09:26:26;;;;;;;3.33;3.03;;;8.70;76.30;;;;;;4992395;28;20427;-72
2021/12/01 09:28:52;;;;;;;2.13;1.93;;;8.70;69.80;;;;;;4992378;28;20451;-72
2021/12/01 09:31:18;;;;;;;2.43;1.90;;;8.70;69.50;;;;;;4984745;28;20425;-72
2021/12/01 09:33:44;;;;;;;2.90;2.70;;;8.70;68.30;;;;;;4971935;28;20249;-72
2021/12/01 09:36:11;;;;;;;1.80;1.70;;;8.70;63.80;;;;;;4972552;28;20332;-72
2021/12/01 09:38:37;;;;;;;2.80;2.60;;;8.70;60.20;;;;;;4973048;28;20436;-74
2021/12/01 09:41:02;;;;;;;2.27;2.17;;;8.70;55.60;;;;;;4979308;28;20456;-72
2021/12/01 09:43:31;;;;;;;2.83;2.63;;;8.70;56.00;;;;;;4991442;28;20412;-73
2021/12/01 09:46:04;;;;;;;1.83;1.73;;;8.70;54.30;;;;;;4992168;28;20816;-74
2021/12/01 09:48:32;;;;;;;2.30;2.20;;;8.70;52.60;;;;;;4992207;28;20537;-72
2021/12/01 09:50:58;;;;;;;1.73;1.63;;;8.70;50.60;;;;;;4985551;28;20560;-72
2021/12/01 09:53:25;;;;;;;2.20;2.00;;;8.70;47.50;;;;;;4971390;28;20493;-72
2021/12/01 09:55:51;;;;;;;2.60;2.40;;;8.70;45.70;;;;;;4972674;28;20498;-70
2021/12/01 09:58:23;;;;;;;3.37;2.73;;;8.70;41.80;;;;;;4972724;28;20821;-73
2021/12/01 10:00:53;;;;;;;2.00;1.90;;;8.70;41.50;;;;;;4976878;28;20425;-73
2021/12/01 10:03:19;;;;;;;3.23;2.97;;;8.70;39.50;;;;;;4991130;28;21033;-71
2021/12/01 10:06:04;;;;;;;2.37;2.20;;;8.70;36.20;;;;;;4990559;28;20432;-74
2021/12/01 10:08:38;;;;;;;3.07;2.80;;;8.70;33.20;;;;;;4991902;28;20455;-71
2021/12/01 10:11:25;;;;;;;2.57;2.37;;;8.70;30.80;;;;;;4984498;28;20424;-74
2021/12/01 10:13:57;;;;;;;3.20;3.00;;;8.70;27.70;;;;;;4971446;28;20401;-71
2021/12/01 10:16:25;;;;;;;2.97;2.73;;;8.70;28.00;;;;;;4972254;28;20433;-76
2021/12/01 10:18:54;;;;;;;2.57;2.47;;;8.70;25.20;;;;;;4972372;28;20539;-73
2021/12/01 10:21:30;;;;;;;2.73;2.37;;;8.70;20.40;;;;;;4980147;28;20428;-72
2021/12/01 10:23:59;;;;;;;3.33;2.77;;;8.70;22.50;;;;;;4990938;28;20404;-72
2021/12/01 10:26:28;;;;;;;2.60;2.40;;;8.70;23.70;;;;;;4990360;28;20421;-74
2021/12/01 10:28:56;;;;;;;2.80;2.60;;;8.70;22.10;;;;;;4991295;28;20444;-71
2021/12/01 10:31:42;;;;;;;3.03;2.83;;;8.70;21.70;;;;;;4982853;28;20425;-71
2021/12/01 10:34:29;;;;;;;3.60;3.40;;;8.70;19.70;;;;;;4971187;28;20891;-74
2021/12/01 10:37:26;;;;;;;2.87;2.67;;;8.70;18.80;;;;;;4971968;28;20425;-73
2021/12/01 10:40:14;;;;;;;3.63;3.33;;;8.80;17.40;;;;;;4972128;28;20454;-73
2021/12/01 10:43:01;;;;;;;3.43;3.23;;;8.80;15.20;;;;;;4989104;28;20901;-72
2021/12/01 10:45:30;;;;;;;3.20;3.00;;;8.70;13.70;;;;;;4991060;28;20587;-71
2021/12/01 10:47:57;;;;;;;8.00;3.10;;;8.70;14.10;;;;;;4991377;28;20451;-73
2021/12/01 10:50:26;;;;;;;3.40;3.10;;;8.70;12.50;;;;;;4990961;28;20491;-75
2021/12/01 10:53:03;;;;;;;4.10;3.83;;;8.70;10.00;;;;;;4969373;28;20449;-71
2021/12/01 10:55:30;;;;;;;3.70;3.30;;;8.70;9.60;;;;;;4971676;28;20515;-71
2021/12/01 10:58:06;;;;;;;3.57;3.33;;;8.70;4.30;;;;;;4971714;28;20405;-72
2021/12/01 11:00:36;;;;;;;2.87;2.67;;;8.70;3.00;;;;;;4974007;28;20460;-73
2021/12/01 11:03:17;;;;;;;2.90;2.70;;;8.70;1.30;;;;;;4977930;28;20508;-71
2021/12/01 11:05:46;;;;;;;3.57;3.27;;;8.70;1.00;;;;;;4984886;28;20450;-73
2021/12/01 11:08:14;;;;;;;2.70;2.50;;;8.70;1.00;;;;;;4990336;28;20451;-73
2021/12/01 11:10:41;;;;;;;2.60;2.50;;;8.70;1.30;;;;;;4991063;28;20972;-74
2021/12/01 11:13:07;;;;;;;3.00;2.80;;;8.70;1.80;;;;;;4990386;28;20479;-71
2021/12/01 11:15:38;;;;;;;3.67;3.37;;;8.70;1.40;;;;;;4990881;28;20444;-74
2021/12/01 11:18:05;;;;;;;2.53;2.43;;;8.70;2.70;;;;;;4990847;28;20411;-72
2021/12/01 11:20:46;;;;;;;3.17;2.97;;;8.60;2.10;;;;;;4990981;28;20408;-71
2021/12/01 11:23:21;;;;;;;3.20;3.00;;;8.70;4.20;;;;;;4989419;28;20791;-73
2021/12/01 11:25:56;;;;;;;2.83;2.70;;;8.60;3.00;;;;;;4990301;28;20858;-75
2021/12/01 11:28:27;;;;;;;3.37;3.10;;;8.60;4.70;;;;;;4990698;28;20473;-72
2021/12/01 11:30:58;;;;;;;2.80;2.60;;;8.60;6.60;;;;;;4990776;28;20458;-75
2021/12/01 11:33:25;;;;;;;3.60;2.37;;;8.60;5.70;;;;;;4990068;28;20410;-75
2021/12/01 11:35:57;;;;;;;3.03;2.83;;;8.60;4.70;;;;;;4990641;28;20482;-74
2021/12/01 11:38:23;;;;;;;3.27;3.07;;;8.60;1.00;;;;;;4990667;28;20443;-71
2021/12/01 11:40:50;;;;;;;2.60;2.40;;;8.60;1.00;;;;;;4990573;28;20409;-73
2021/12/01 11:43:20;;;;;;;2.23;2.13;;;8.60;1.00;;;;;;4989455;28;20396;-70
2021/12/01 11:45:46;;;;;;;2.63;2.43;;;8.60;1.00;;;;;;4990317;28;20967;-75
2021/12/01 11:48:20;;;;;;;3.13;2.93;;;8.60;1.00;;;;;;4990392;28;20539;-72
2021/12/01 11:51:18;;;;;;;2.47;2.33;;;8.60;1.00;;;;;;4990724;28;20395;-74
2021/12/01 11:53:47;;;;;;;2.50;2.40;;;8.60;1.00;;;;;;4989692;28;20424;-75
2021/12/01 11:56:19;;;;;;;2.83;2.63;;;8.60;1.00;;;;;;4989044;28;20827;-74
2021/12/01 11:58:56;;;;;;;2.73;2.53;;;8.60;1.00;;;;;;4990436;28;20481;-73
2021/12/01 12:01:21;;;;;;;3.00;2.47;;;8.60;1.00;;;;;;4990047;28;20403;-74
2021/12/01 12:03:53;;;;;;;2.43;2.33;;;8.60;1.00;;;;;;4989705;28;20408;-73
2021/12/01 12:06:19;;;;;;;1.97;1.87;;;8.60;1.00;;;;;;4990188;28;20197;-76
2021/12/01 12:08:54;;;;;;;2.30;2.20;;;8.60;1.00;;;;;;4990187;28;20501;-75
2021/12/01 12:11:47;;;;;;;2.43;2.33;;;8.70;1.00;;;;;;4990379;28;20746;-72
2021/12/01 12:14:20;;;;;;;2.80;2.00;;;8.70;1.00;;;;;;5011565;28;20921;-76
2021/12/01 12:17:24;;;;;;;1.70;1.60;;;8.70;1.00;;;;;;4990128;28;20435;-73
2021/12/01 12:19:55;;;;;;;2.00;1.77;;;8.70;1.00;;;;;;4989988;28;20924;-75
2021/12/01 12:22:38;;;;;;;2.10;2.00;;;8.80;1.00;;;;;;4989043;28;21104;-73
2021/12/01 12:25:08;;;;;;;3.20;2.03;;;8.80;1.00;;;;;;4990047;28;20414;-72
2021/12/01 12:27:38;;;;;;;2.00;1.90;;;8.80;1.00;;;;;;4989965;28;20446;-76
2021/12/01 12:30:09;;;;;;;1.70;1.60;;;8.70;1.00;;;;;;4990157;28;20397;-75
2021/12/01 12:32:36;;;;;;;2.10;2.00;;;8.70;1.00;;;;;;4989421;28;20400;-73
2021/12/01 12:35:06;;;;;;;2.33;1.97;;;8.70;1.00;;;;;;4991981;28;20454;-71
2021/12/01 12:37:33;;;;;;;2.20;2.00;;;8.70;1.00;;;;;;4993264;28;20415;-74
2021/12/01 12:40:01;;;;;;;2.10;2.00;;;8.80;1.00;;;;;;4992635;28;20453;-76
2021/12/01 12:42:28;;;;;;;2.33;2.23;;;8.80;1.00;;;;;;4992491;28;20475;-73
2021/12/01 12:44:56;;;;;;;2.33;2.23;;;8.80;1.00;;;;;;4992986;28;20428;-74
2021/12/01 12:47:26;;;;;;;1.77;1.67;;;8.80;1.00;;;;;;4993078;28;20432;-75
2021/12/01 12:49:56;;;;;;;1.90;1.80;;;8.80;1.00;;;;;;4993164;28;20419;-76
2021/12/01 12:52:25;;;;;;;2.00;1.90;;;8.80;1.00;;;;;;4992294;28;20388;-75
2021/12/01 12:55:06;;;;;;;1.90;1.80;;;8.90;1.00;;;;;;4992844;28;20857;-75
2021/12/01 12:57:57;;;;;;;1.87;1.77;;;8.80;1.00;;;;;;4992463;28;20416;-76
2021/12/01 13:00:30;;;;;;;1.83;1.73;;;8.90;1.00;;;;;;4992923;28;20399;-74
2021/12/01 13:03:00;;;;;;;1.47;1.37;;;8.90;1.00;;;;;;4992130;28;20445;-74
2021/12/01 13:05:36;;;;;;;1.87;1.77;;;8.80;1.00;;;;;;4992799;28;20420;-74
2021/12/01 13:08:03;;;;;;;1.47;1.37;;;8.90;1.00;;;;;;4992830;28;20448;-75
2021/12/01 13:10:39;;;;;;;1.50;1.40;;;9.00;1.00;;;;;;4992807;28;20457;-75
2021/12/01 13:13:10;;;;;;;2.90;1.70;;;8.90;1.00;;;;;;4991574;28;20407;-76